createdAt,value
2022-12-01T00:00:01.575Z,2.58
2022-12-01T00:02:33.682Z,2.70
2022-12-01T00:05:05.978Z,2.77
2022-12-01T00:07:37.574Z,2.69
2022-12-01T00:10:26.939Z,2.56
2022-12-01T00:13:03.462Z,2.55
2022-12-01T00:15:38.309Z,2.99
2022-12-01T00:18:09.979Z,2.82
2022-12-01T00:20:41.076Z,2.77
2022-12-01T00:23:13.664Z,3.00
2022-12-01T00:25:47.815Z,2.90
2022-12-01T00:28:21.290Z,2.47
2022-12-01T00:30:54.653Z,2.49
2022-12-01T00:33:28.360Z,2.92
2022-12-01T00:36:02.352Z,2.72
2022-12-01T00:38:34.668Z,2.38
2022-12-01T00:41:09.286Z,2.82
2022-12-01T00:43:43.255Z,2.42
2022-12-01T00:46:15.138Z,2.46
2022-12-01T00:48:47.097Z,2.44
2022-12-01T00:51:18.782Z,2.59
2022-12-01T00:53:52.017Z,2.75
2022-12-01T00:56:26.739Z,2.62
2022-12-01T00:58:58.652Z,2.46
2022-12-01T01:01:30.668Z,2.52
2022-12-01T01:04:02.337Z,2.37
2022-12-01T01:06:33.542Z,2.20
2022-12-01T01:09:05.264Z,2.17
2022-12-01T01:11:40.200Z,2.20
2022-12-01T01:14:13.159Z,2.50
2022-12-01T01:16:44.388Z,2.68
2022-12-01T01:19:19.356Z,2.81
2022-12-01T01:21:50.605Z,2.80
2022-12-01T01:24:21.991Z,2.76
2022-12-01T01:26:58.382Z,2.65
2022-12-01T01:29:32.098Z,2.72
2022-12-01T01:32:03.423Z,2.89
2022-12-01T01:34:37.158Z,3.00
2022-12-01T01:37:09.663Z,2.92
2022-12-01T01:39:41.496Z,2.64
2022-12-01T01:42:16.906Z,2.33
2022-12-01T01:44:56.276Z,2.69
2022-12-01T01:47:31.483Z,2.84
2022-12-01T01:50:09.543Z,2.61
2022-12-01T01:52:49.484Z,2.40
2022-12-01T01:55:23.569Z,2.64
2022-12-01T01:57:57.302Z,2.68
2022-12-01T02:00:29.656Z,2.63
2022-12-01T02:03:01.665Z,2.85
2022-12-01T02:05:37.981Z,2.85
2022-12-01T02:08:12.822Z,2.91
2022-12-01T02:11:04.259Z,2.75
2022-12-01T02:13:51.598Z,2.84
2022-12-01T02:16:35.950Z,2.90
2022-12-01T02:19:28.658Z,2.35
2022-12-01T02:22:13.067Z,2.17
2022-12-01T02:25:15.480Z,2.22
2022-12-01T02:28:11.779Z,2.47
2022-12-01T02:30:51.076Z,2.32
2022-12-01T02:33:29.865Z,2.12
2022-12-01T02:36:08.036Z,2.09
2022-12-01T02:38:43.994Z,2.27
2022-12-01T02:41:23.381Z,2.48
2022-12-01T02:44:01.924Z,2.49
2022-12-01T02:46:39.326Z,2.51
2022-12-01T02:49:16.878Z,2.59
2022-12-01T02:51:48.994Z,2.65
2022-12-01T02:54:22.934Z,2.70
2022-12-01T02:56:56.708Z,2.36
2022-12-01T02:59:29.127Z,2.40
2022-12-01T03:02:14.087Z,2.53
2022-12-01T03:05:03.021Z,2.54
2022-12-01T03:07:56.648Z,2.73
2022-12-01T03:10:34.936Z,2.92
2022-12-01T03:13:22.272Z,2.82
2022-12-01T03:16:03.637Z,3.11
2022-12-01T03:18:43.001Z,2.43
2022-12-01T03:21:24.158Z,2.57
2022-12-01T03:24:03.105Z,2.54
2022-12-01T03:26:39.826Z,1.98
2022-12-01T03:29:19.783Z,1.90
2022-12-01T03:31:57.077Z,2.15
2022-12-01T03:34:38.396Z,1.73
2022-12-01T03:37:18.546Z,1.74
2022-12-01T03:39:57.248Z,2.23
2022-12-01T03:42:39.952Z,2.21
2022-12-01T03:45:17.552Z,1.80
2022-12-01T03:47:52.565Z,1.95
2022-12-01T03:50:37.016Z,1.83
2022-12-01T03:53:13.738Z,1.95
2022-12-01T03:55:47.767Z,2.29
2022-12-01T03:58:24.067Z,2.55
2022-12-01T04:00:57.895Z,2.26
2022-12-01T04:03:29.869Z,2.12
2022-12-01T04:06:03.611Z,2.45
2022-12-01T04:08:37.608Z,2.35
2022-12-01T04:11:32.590Z,2.16
2022-12-01T04:14:02.071Z,2.07
2022-12-01T04:16:33.196Z,2.39
2022-12-01T04:19:04.943Z,2.12
2022-12-01T04:21:38.740Z,2.33
2022-12-01T04:24:11.078Z,2.28
2022-12-01T04:26:46.565Z,2.58
2022-12-01T04:29:18.432Z,2.66
2022-12-01T04:31:49.850Z,2.53
2022-12-01T04:34:21.319Z,2.27
2022-12-01T04:36:55.531Z,2.44
2022-12-01T04:39:29.197Z,2.22
2022-12-01T04:42:00.394Z,2.29
2022-12-01T04:44:34.940Z,2.16
2022-12-01T04:47:07.767Z,2.54
2022-12-01T04:49:39.654Z,2.56
2022-12-01T04:52:13.696Z,2.70
2022-12-01T04:54:45.564Z,2.51
2022-12-01T04:57:16.711Z,2.24
2022-12-01T04:59:48.605Z,2.26
2022-12-01T05:02:20.735Z,2.20
2022-12-01T05:04:58.131Z,2.40
2022-12-01T05:07:33.178Z,2.58
2022-12-01T05:10:07.719Z,2.50
2022-12-01T05:12:41.622Z,2.26
2022-12-01T05:15:16.015Z,2.33
2022-12-01T05:17:48.101Z,2.31
2022-12-01T05:20:36.280Z,2.24
2022-12-01T05:23:15.249Z,1.93
2022-12-01T05:25:48.974Z,2.13
2022-12-01T05:28:21.265Z,1.85
2022-12-01T05:30:54.377Z,2.33
2022-12-01T05:33:26.493Z,2.35
2022-12-01T05:35:58.740Z,2.00
2022-12-01T05:38:32.807Z,2.14
2022-12-01T05:41:04.540Z,2.02
2022-12-01T05:43:35.735Z,1.73
2022-12-01T05:46:07.714Z,2.16
2022-12-01T05:48:39.235Z,1.92
2022-12-01T05:51:12.325Z,2.02
2022-12-01T05:53:46.497Z,1.80
2022-12-01T05:56:17.973Z,2.08
2022-12-01T05:58:49.398Z,2.18
2022-12-01T06:01:21.296Z,1.58
2022-12-01T06:03:52.838Z,1.63
2022-12-01T06:06:24.644Z,1.70
2022-12-01T06:08:58.744Z,1.59
2022-12-01T06:11:30.531Z,1.68
2022-12-01T06:14:03.172Z,1.95
2022-12-01T06:16:35.666Z,2.22
2022-12-01T06:19:07.181Z,2.29
2022-12-01T06:21:41.134Z,2.49
2022-12-01T06:24:16.522Z,2.45
2022-12-01T06:29:51.294Z,2.40
2022-12-01T06:32:39.697Z,2.11
2022-12-01T06:35:12.237Z,2.12
2022-12-01T06:37:44.456Z,2.16
2022-12-01T06:40:19.357Z,1.91
2022-12-01T06:42:51.677Z,2.37
2022-12-01T06:45:23.657Z,2.33
2022-12-01T06:47:57.478Z,2.73
2022-12-01T06:50:29.634Z,2.43
2022-12-01T06:53:02.119Z,2.05
2022-12-01T06:55:37.137Z,1.71
2022-12-01T06:58:09.836Z,1.70
2022-12-01T07:00:41.502Z,1.88
2022-12-01T07:03:15.817Z,1.75
2022-12-01T07:05:47.699Z,2.22
2022-12-01T07:08:19.828Z,2.40
2022-12-01T07:11:02.999Z,2.60
2022-12-01T07:13:35.464Z,2.45
2022-12-01T07:16:07.799Z,2.19
2022-12-01T07:18:40.817Z,2.27
2022-12-01T07:21:16.176Z,1.93
2022-12-01T07:23:48.371Z,2.01
2022-12-01T07:26:22.895Z,2.28
2022-12-01T07:28:56.586Z,2.20
2022-12-01T07:31:28.831Z,2.35
2022-12-01T07:34:01.887Z,2.48
2022-12-01T07:36:34.617Z,2.18
2022-12-01T07:39:08.797Z,2.35
2022-12-01T07:41:43.788Z,2.30
2022-12-01T07:44:16.596Z,2.75
2022-12-01T07:46:48.864Z,2.80
2022-12-01T07:49:21.563Z,2.76
2022-12-01T07:51:53.939Z,2.64
2022-12-01T07:54:27.277Z,2.70
2022-12-01T07:57:05.144Z,2.62
2022-12-01T07:59:37.817Z,2.36
2022-12-01T08:02:12.021Z,2.19
2022-12-01T08:04:46.336Z,2.07
2022-12-01T08:07:18.917Z,2.60
2022-12-01T08:09:52.062Z,2.56
2022-12-01T08:12:27.316Z,2.89
2022-12-01T08:14:59.882Z,2.65
2022-12-01T08:17:32.365Z,2.34
2022-12-01T08:20:05.654Z,2.38
2022-12-01T08:22:37.932Z,2.32
2022-12-01T08:25:11.411Z,2.28
2022-12-01T08:27:46.464Z,2.21
2022-12-01T08:30:26.308Z,2.64
2022-12-01T08:33:00.032Z,2.32
2022-12-01T08:35:34.225Z,2.71
2022-12-01T08:38:06.838Z,2.51
2022-12-01T08:40:39.625Z,2.18
2022-12-01T08:43:34.699Z,2.29
2022-12-01T08:46:07.221Z,2.22
2022-12-01T08:48:39.864Z,2.05
2022-12-01T08:51:14.874Z,2.37
2022-12-01T08:53:49.104Z,2.38
2022-12-01T08:56:25.631Z,1.98
2022-12-01T08:59:02.062Z,2.07
2022-12-01T09:01:36.165Z,2.22
2022-12-01T09:04:11.586Z,2.01
2022-12-01T09:06:47.467Z,1.99
2022-12-01T09:09:23.453Z,2.07
2022-12-01T09:11:56.761Z,2.52
2022-12-01T09:14:31.841Z,2.77
2022-12-01T09:17:04.399Z,2.81
2022-12-01T09:19:36.799Z,2.58
2022-12-01T09:22:09.638Z,3.17
2022-12-01T09:24:41.998Z,3.14
2022-12-01T09:27:30.879Z,2.79
2022-12-01T09:30:11.478Z,2.92
2022-12-01T09:32:44.279Z,2.79
2022-12-01T09:35:20.763Z,2.76
2022-12-01T09:37:55.964Z,2.66
2022-12-01T09:40:32.396Z,2.77
2022-12-01T09:43:08.277Z,2.55
2022-12-01T09:45:47.881Z,2.74
2022-12-01T09:48:30.319Z,2.79
2022-12-01T09:51:02.798Z,2.72
2022-12-01T09:53:35.596Z,2.58
2022-12-01T09:56:27.363Z,2.70
2022-12-01T09:59:02.801Z,2.62
2022-12-01T10:01:41.160Z,2.74
2022-12-01T10:04:18.639Z,2.72
2022-12-01T10:06:55.407Z,3.00
2022-12-01T10:09:33.398Z,2.96
2022-12-01T10:12:14.157Z,2.76
2022-12-01T10:14:49.262Z,2.50
2022-12-01T10:17:32.126Z,2.75
2022-12-01T10:20:14.198Z,2.34
2022-12-01T10:23:17.922Z,2.33
2022-12-01T10:25:59.837Z,2.26
2022-12-01T10:28:52.281Z,2.06
2022-12-01T10:31:32.516Z,2.39
2022-12-01T10:34:14.119Z,2.38
2022-12-01T10:36:47.599Z,2.49
2022-12-01T10:42:19.878Z,2.69
2022-12-01T10:44:55.284Z,2.51
2022-12-01T10:47:29.247Z,2.61
2022-12-01T10:50:07.170Z,3.14
2022-12-01T10:52:42.321Z,3.48
2022-12-01T10:55:31.282Z,3.67
2022-12-01T10:58:09.576Z,3.33
2022-12-01T11:01:01.493Z,2.86
2022-12-01T11:03:37.378Z,2.92
2022-12-01T11:06:14.719Z,3.28
2022-12-01T11:08:54.284Z,3.14
2022-12-01T11:11:34.723Z,3.07
2022-12-01T11:14:11.082Z,2.90
2022-12-01T11:16:47.205Z,3.24
2022-12-01T11:19:32.985Z,3.27
2022-12-01T11:22:27.201Z,3.24
2022-12-01T11:25:03.648Z,3.51
2022-12-01T11:27:42.018Z,3.27
2022-12-01T11:30:27.049Z,2.97
2022-12-01T11:33:02.608Z,3.15
2022-12-01T11:35:38.885Z,3.10
2022-12-01T11:38:29.619Z,3.02
2022-12-01T11:41:03.404Z,3.16
2022-12-01T11:43:40.676Z,3.29
2022-12-01T11:46:15.539Z,3.27
2022-12-01T11:49:02.041Z,3.43
2022-12-01T11:51:37.920Z,3.26
2022-12-01T11:54:19.125Z,3.14
2022-12-01T11:57:25.345Z,3.28
2022-12-01T11:59:46.529Z,3.51
2022-12-01T12:02:31.391Z,3.24
2022-12-01T12:05:19.219Z,3.03
2022-12-01T12:08:05.583Z,3.14
2022-12-01T12:10:52.310Z,3.32
2022-12-01T12:13:45.023Z,3.42
2022-12-01T12:16:40.736Z,3.43
2022-12-01T12:19:33.870Z,3.31
2022-12-01T12:22:26.233Z,3.11
2022-12-01T12:25:13.856Z,3.03
2022-12-01T12:28:23.420Z,3.43
2022-12-01T12:31:07.253Z,3.58
2022-12-01T12:34:14.494Z,3.85
2022-12-01T12:36:55.498Z,3.72
2022-12-01T12:39:38.816Z,4.06
2022-12-01T12:42:16.916Z,3.39
2022-12-01T12:45:00.096Z,3.30
2022-12-01T12:47:46.056Z,3.27
2022-12-01T12:50:29.378Z,3.04
2022-12-01T12:53:08.496Z,3.14
2022-12-01T12:55:45.859Z,3.35
2022-12-01T12:58:27.059Z,3.59
2022-12-01T13:01:09.366Z,3.67
2022-12-01T13:03:48.943Z,3.11
2022-12-01T13:06:28.340Z,3.29
2022-12-01T13:09:08.417Z,3.18
2022-12-01T13:11:49.626Z,2.91
2022-12-01T13:14:28.465Z,2.79
2022-12-01T13:17:17.579Z,3.29
2022-12-01T13:19:51.241Z,3.34
2022-12-01T13:22:34.017Z,3.16
2022-12-01T13:25:08.787Z,3.24
2022-12-01T13:27:45.217Z,3.16
2022-12-01T13:30:24.896Z,3.15
2022-12-01T13:33:06.656Z,3.52
2022-12-01T13:35:42.177Z,3.03
2022-12-01T13:38:34.310Z,3.22
2022-12-01T13:41:15.778Z,3.20
2022-12-01T13:43:58.181Z,3.32
2022-12-01T13:46:34.232Z,3.14
2022-12-01T13:49:45.498Z,2.95
2022-12-01T13:52:38.116Z,3.07
2022-12-01T13:55:56.051Z,2.97
2022-12-01T13:58:45.723Z,2.94
2022-12-01T14:01:58.686Z,2.91
2022-12-01T14:04:34.499Z,3.14
2022-12-01T14:07:19.180Z,2.91
2022-12-01T14:09:56.101Z,2.87
2022-12-01T14:12:35.006Z,2.87
2022-12-01T14:15:24.117Z,3.48
2022-12-01T14:18:04.169Z,3.55
2022-12-01T14:20:39.439Z,3.50
2022-12-01T14:23:29.299Z,3.54
2022-12-01T14:26:20.209Z,2.98
2022-12-01T14:29:22.179Z,3.10
2022-12-01T14:32:25.130Z,3.13
2022-12-01T14:35:02.743Z,3.27
2022-12-01T14:37:50.122Z,3.10
2022-12-01T14:40:28.903Z,2.90
2022-12-01T14:43:16.904Z,3.13
2022-12-01T14:57:49.090Z,3.60
2022-12-01T15:00:24.552Z,3.05
2022-12-01T15:03:00.591Z,3.34
2022-12-01T15:05:41.069Z,3.00
2022-12-01T15:11:26.158Z,3.32
2022-12-01T15:14:01.869Z,3.26
2022-12-01T15:16:35.966Z,3.28
2022-12-01T15:19:26.672Z,3.50
2022-12-01T15:21:59.589Z,3.25
2022-12-01T15:24:37.911Z,3.22
2022-12-01T15:27:31.271Z,3.61
2022-12-01T15:30:06.533Z,2.91
2022-12-01T15:32:43.532Z,3.14
2022-12-01T15:35:22.618Z,3.49
2022-12-01T15:37:55.800Z,3.47
2022-12-01T15:43:24.060Z,3.89
2022-12-01T15:46:03.546Z,3.83
2022-12-01T15:48:37.985Z,4.06
2022-12-01T15:51:17.470Z,3.83
2022-12-01T15:53:54.151Z,3.66
2022-12-01T15:56:30.916Z,3.77
2022-12-01T15:59:11.030Z,3.69
2022-12-01T16:01:47.750Z,3.61
2022-12-01T16:04:23.033Z,3.56
2022-12-01T16:07:04.272Z,3.73
2022-12-01T16:09:39.569Z,3.85
2022-12-01T16:12:26.680Z,3.30
2022-12-01T16:15:07.356Z,2.70
2022-12-01T16:17:49.287Z,2.96
2022-12-01T16:20:26.893Z,2.92
2022-12-01T16:23:01.347Z,2.74
2022-12-01T16:25:39.205Z,2.88
2022-12-01T16:28:21.836Z,2.65
2022-12-01T16:30:55.448Z,2.55
2022-12-01T16:33:35.405Z,2.56
2022-12-01T16:36:11.466Z,2.49
2022-12-01T16:38:43.539Z,2.50
2022-12-01T16:41:20.949Z,2.64
2022-12-01T16:44:12.836Z,2.61
2022-12-01T16:46:45.624Z,2.93
2022-12-01T16:49:20.642Z,2.68
2022-12-01T16:51:57.102Z,2.90
2022-12-01T16:54:29.902Z,2.87
2022-12-01T16:57:02.203Z,2.92
2022-12-01T16:59:56.661Z,3.32
2022-12-01T17:02:28.411Z,3.00
2022-12-01T17:05:02.521Z,3.18
2022-12-01T17:07:34.332Z,2.54
2022-12-01T17:10:06.003Z,2.74
2022-12-01T17:12:38.264Z,2.91
2022-12-01T17:15:11.548Z,2.51
2022-12-01T17:17:43.807Z,2.61
2022-12-01T17:20:18.408Z,2.69
2022-12-01T17:22:50.475Z,2.43
2022-12-01T17:25:22.392Z,2.35
2022-12-01T17:27:55.632Z,2.63
2022-12-01T17:30:27.958Z,2.60
2022-12-01T17:33:00.875Z,2.99
2022-12-01T17:35:35.627Z,3.04
2022-12-01T17:38:07.884Z,2.99
2022-12-01T17:40:39.322Z,2.82
2022-12-01T17:43:11.046Z,2.57
2022-12-01T17:45:44.202Z,2.62
2022-12-01T17:48:16.086Z,2.61
2022-12-01T17:50:50.317Z,2.80
2022-12-01T17:53:26.264Z,2.86
2022-12-01T17:55:57.963Z,3.33
2022-12-01T17:58:30.086Z,3.45
2022-12-01T18:01:01.668Z,3.38
2022-12-01T18:03:33.720Z,3.13
2022-12-01T18:06:08.433Z,3.40
2022-12-01T18:08:41.786Z,3.04
2022-12-01T18:11:16.035Z,3.12
2022-12-01T18:13:52.027Z,3.19
2022-12-01T18:16:25.812Z,3.24
2022-12-01T18:18:59.811Z,3.46
2022-12-01T18:21:35.106Z,3.44
2022-12-01T18:24:09.111Z,3.17
2022-12-01T18:26:42.783Z,3.27
2022-12-01T18:29:24.363Z,2.90
2022-12-01T18:31:57.629Z,2.81
2022-12-01T18:34:30.686Z,3.00
2022-12-01T18:37:06.345Z,2.90
2022-12-01T18:39:38.487Z,3.23
2022-12-01T18:42:12.750Z,3.35
2022-12-01T18:44:45.424Z,3.49
2022-12-01T18:47:16.623Z,3.48
2022-12-01T18:49:48.915Z,3.50
2022-12-01T18:52:23.409Z,3.39
2022-12-01T18:54:57.031Z,3.05
2022-12-01T18:57:28.639Z,2.88
2022-12-01T19:00:00.842Z,3.39
2022-12-01T19:02:32.882Z,3.38
2022-12-01T19:05:05.035Z,3.48
2022-12-01T19:07:39.686Z,3.17
2022-12-01T19:10:13.347Z,3.24
2022-12-01T19:12:45.208Z,3.16
2022-12-01T19:15:17.462Z,3.21
2022-12-01T19:17:49.140Z,3.28
2022-12-01T19:20:21.605Z,3.20
2022-12-01T19:22:58.782Z,3.39
2022-12-01T19:25:30.861Z,3.13
2022-12-01T19:28:02.635Z,3.11
2022-12-01T19:30:34.792Z,3.16
2022-12-01T19:33:09.066Z,3.07
2022-12-01T19:35:41.240Z,2.65
2022-12-01T19:38:15.541Z,3.10
2022-12-01T19:40:47.567Z,3.17
2022-12-01T19:43:19.260Z,3.34
2022-12-01T19:45:51.392Z,3.49
2022-12-01T19:48:22.924Z,3.75
2022-12-01T19:50:54.901Z,3.67
2022-12-01T19:53:33.289Z,3.44
2022-12-01T19:56:09.346Z,3.52
2022-12-01T19:58:43.306Z,3.98
2022-12-01T20:01:21.963Z,3.83
2022-12-01T20:03:57.043Z,3.62
2022-12-01T20:06:32.694Z,3.91
2022-12-01T20:09:12.043Z,3.83
2022-12-01T20:11:44.637Z,3.65
2022-12-01T20:14:16.135Z,3.56
2022-12-01T20:16:47.674Z,3.72
2022-12-01T20:19:19.296Z,3.76
2022-12-01T20:21:50.832Z,3.75
2022-12-01T20:24:28.983Z,3.93
2022-12-01T20:27:03.343Z,3.69
2022-12-01T20:29:34.655Z,3.71
2022-12-01T20:32:09.051Z,3.75
2022-12-01T20:34:40.376Z,3.54
2022-12-01T20:37:15.769Z,3.58
2022-12-01T20:39:50.369Z,4.06
2022-12-01T20:42:24.842Z,3.39
2022-12-01T20:44:56.830Z,3.43
2022-12-01T20:47:28.538Z,3.88
2022-12-01T20:50:00.565Z,3.65
2022-12-01T20:52:33.250Z,3.93
2022-12-01T20:55:08.801Z,3.88
2022-12-01T20:57:41.841Z,3.50
2022-12-01T21:00:15.120Z,3.48
2022-12-01T21:02:48.262Z,3.79
2022-12-01T21:05:20.600Z,3.61
2022-12-01T21:07:53.441Z,3.24
2022-12-01T21:10:31.888Z,3.67
2022-12-01T21:13:33.870Z,3.33
2022-12-01T21:16:12.492Z,3.52
2022-12-01T21:18:53.616Z,3.55
2022-12-01T21:21:28.540Z,3.43
2022-12-01T21:24:17.461Z,3.26
2022-12-01T21:26:55.644Z,3.76
2022-12-01T21:29:30.504Z,3.51
2022-12-01T21:32:08.690Z,3.61
2022-12-01T21:34:40.736Z,3.82
2022-12-01T21:37:23.359Z,3.59
2022-12-01T21:39:58.843Z,3.79
2022-12-01T21:42:34.831Z,3.41
2022-12-01T21:45:17.270Z,3.77
2022-12-01T21:47:48.699Z,4.11
2022-12-01T21:50:25.027Z,3.67
2022-12-01T21:52:57.625Z,3.52
2022-12-01T21:55:41.268Z,3.47
2022-12-01T21:58:29.168Z,3.62
2022-12-01T22:01:02.363Z,3.60
2022-12-01T22:03:35.929Z,3.57
2022-12-01T22:06:31.159Z,3.93
2022-12-01T22:09:07.370Z,4.05
2022-12-01T22:11:48.060Z,4.11
2022-12-01T22:14:24.372Z,4.07
2022-12-01T22:17:01.469Z,3.63
2022-12-01T22:19:36.487Z,4.03
2022-12-01T22:22:25.319Z,3.76
2022-12-01T22:25:01.296Z,3.83
2022-12-01T22:27:37.061Z,3.76
2022-12-01T22:30:23.149Z,3.98
2022-12-01T22:32:59.086Z,3.96
2022-12-01T22:35:35.619Z,3.95
2022-12-01T22:38:32.628Z,3.88
2022-12-01T22:41:07.990Z,3.87
2022-12-01T22:43:47.888Z,3.82
2022-12-01T22:46:28.692Z,3.69
2022-12-01T22:49:02.844Z,3.75
2022-12-01T22:51:46.463Z,3.93
2022-12-01T22:54:35.761Z,3.66
2022-12-01T22:57:17.121Z,3.45
2022-12-01T22:59:50.734Z,3.42
2022-12-01T23:02:27.705Z,3.60
2022-12-01T23:05:03.042Z,3.64
2022-12-01T23:07:37.663Z,3.76
2022-12-01T23:10:16.178Z,3.53
2022-12-01T23:12:49.560Z,3.61
2022-12-01T23:15:41.865Z,3.69
2022-12-01T23:18:21.883Z,3.62
2022-12-01T23:20:55.438Z,3.52
2022-12-01T23:23:31.160Z,3.78
2022-12-01T23:26:05.584Z,4.04
2022-12-01T23:28:41.747Z,3.89
2022-12-01T23:31:14.222Z,3.57
2022-12-01T23:33:48.516Z,3.67
2022-12-01T23:36:26.118Z,3.59
2022-12-01T23:39:01.939Z,3.70
2022-12-01T23:41:40.536Z,3.53
2022-12-01T23:44:27.711Z,3.68
2022-12-01T23:47:02.222Z,3.55
2022-12-01T23:49:38.530Z,4.05
2022-12-01T23:52:16.889Z,3.82
2022-12-01T23:54:48.731Z,3.84
2022-12-01T23:57:24.607Z,3.90
2022-12-01T23:59:59.372Z,3.81
